Oneida, Kansas
Current Conditions -  °F | °C
As of 11:53 AM on Thursday 27 Nov 2014 (Local Time) from KFNB Reporting Station
Broken Clouds Broken Clouds  
Wind Chill: 20°   Ceiling: 5000
Heat Index: 27°   Visibility: 10mi
Dew Point:   Wind: 6mph
Humidity: 47%   Direction: 70°ENE
Pressure: 30.49"   Gusts: NA
Location:  39.86°N, 95.94°W
Report Text: KFNB 271753Z AUTO 07005KT 10SM BKN050 M03/M13 A3049 RMK AO2 SLP339 T10281128 11022 21067 58014
Loading
Personal Weather Stations






























Interactive Weather Map New forecast layout! Learn more

10-Day Weather Forecast

Advertisements
Track Severe Weather on mobile